createdAt,value
2016-11-20T00:00:11.053Z,0
2016-11-20T00:01:11.697Z,0
2016-11-20T00:02:11.801Z,0
2016-11-20T00:03:12.149Z,0
2016-11-20T00:04:12.009Z,0
2016-11-20T00:05:11.706Z,0
2016-11-20T00:06:10.900Z,0
2016-11-20T00:07:11.719Z,0
2016-11-20T00:08:11.409Z,0
2016-11-20T00:09:11.619Z,0
2016-11-20T00:10:10.864Z,0
2016-11-20T00:11:11.346Z,0
2016-11-20T00:12:10.749Z,0
2016-11-20T00:13:11.370Z,0
2016-11-20T00:14:11.286Z,0
2016-11-20T00:15:11.879Z,0
2016-11-20T00:16:10.171Z,0
2016-11-20T00:17:11.170Z,0
2016-11-20T00:18:11.417Z,0
2016-11-20T00:19:11.073Z,0
2016-11-20T00:20:11.759Z,0
2016-11-20T00:21:11.060Z,0
2016-11-20T00:22:10.260Z,0
2016-11-20T00:23:10.481Z,0
2016-11-20T00:24:09.910Z,0
2016-11-20T00:25:11.640Z,0
2016-11-20T00:26:11.220Z,0
2016-11-20T00:27:10.394Z,0
2016-11-20T00:28:10.871Z,0
2016-11-20T00:29:10.431Z,0
2016-11-20T00:30:10.740Z,0
2016-11-20T00:31:10.476Z,0
2016-11-20T00:32:10.662Z,0
2016-11-20T00:33:10.830Z,0
2016-11-20T00:34:10.310Z,0
2016-11-20T00:35:11.401Z,0
2016-11-20T00:36:10.609Z,0
2016-11-20T00:37:10.300Z,0
2016-11-20T00:38:10.545Z,0
2016-11-20T00:39:09.470Z,0
2016-11-20T00:40:10.857Z,0
2016-11-20T00:41:11.268Z,0
2016-11-20T00:42:10.818Z,0
2016-11-20T00:43:10.803Z,0
2016-11-20T00:44:10.240Z,0
2016-11-20T00:45:10.509Z,0
2016-11-20T00:46:09.780Z,0
2016-11-20T00:47:09.891Z,0
2016-11-20T00:48:10.589Z,0
2016-11-20T00:49:10.679Z,0
2016-11-20T00:50:10.010Z,0
2016-11-20T00:51:10.690Z,0
2016-11-20T00:52:10.884Z,0
2016-11-20T00:53:10.068Z,0
2016-11-20T00:54:09.172Z,0
2016-11-20T00:55:10.579Z,0
2016-11-20T00:56:09.680Z,0
2016-11-20T00:57:09.960Z,0
2016-11-20T00:58:10.918Z,0
2016-11-20T00:59:09.769Z,0
2016-11-20T01:00:10.900Z,0
2016-11-20T01:01:09.859Z,0
2016-11-20T01:02:10.019Z,0
2016-11-20T01:03:09.680Z,0
2016-11-20T01:04:09.259Z,0
2016-11-20T01:05:09.939Z,0
2016-11-20T01:06:09.523Z,0
2016-11-20T01:07:09.519Z,0
2016-11-20T01:08:10.202Z,0
2016-11-20T01:09:09.855Z,0
2016-11-20T01:10:09.369Z,0
2016-11-20T01:11:09.739Z,0
2016-11-20T01:12:09.140Z,0
2016-11-20T01:13:09.668Z,0
2016-11-20T01:14:09.092Z,0
2016-11-20T01:15:10.040Z,0
2016-11-20T01:16:10.506Z,0
2016-11-20T01:17:10.274Z,0
2016-11-20T01:18:09.683Z,0
2016-11-20T01:19:09.508Z,0
2016-11-20T01:20:10.046Z,0
2016-11-20T01:21:09.428Z,0
2016-11-20T01:22:09.686Z,0
2016-11-20T01:23:09.901Z,0
2016-11-20T01:24:09.584Z,0
2016-11-20T01:25:09.564Z,0
2016-11-20T01:26:09.842Z,0
2016-11-20T01:27:09.545Z,0
2016-11-20T01:28:09.243Z,0
2016-11-20T01:29:09.095Z,0
2016-11-20T01:30:10.108Z,0
2016-11-20T01:31:08.308Z,0
2016-11-20T01:32:09.532Z,0
2016-11-20T01:33:09.308Z,0
2016-11-20T01:34:10.068Z,0
2016-11-20T01:35:10.040Z,0
2016-11-20T01:36:08.939Z,0
2016-11-20T01:37:09.529Z,0
2016-11-20T01:38:09.938Z,0
2016-11-20T01:39:08.510Z,0
2016-11-20T01:40:08.831Z,0
2016-11-20T01:41:08.713Z,0
2016-11-20T01:42:09.682Z,0
2016-11-20T01:43:08.673Z,0
2016-11-20T01:44:08.722Z,0
2016-11-20T01:45:08.218Z,0
2016-11-20T01:46:08.355Z,0
2016-11-20T01:47:09.742Z,0
2016-11-20T01:48:09.213Z,0
2016-11-20T01:49:08.249Z,0
2016-11-20T01:50:09.673Z,0
2016-11-20T01:51:09.636Z,0
2016-11-20T01:52:08.539Z,0
2016-11-20T01:53:09.124Z,0
2016-11-20T01:54:08.868Z,0
2016-11-20T01:55:08.854Z,0
2016-11-20T01:56:09.079Z,0
2016-11-20T01:57:08.803Z,0
2016-11-20T01:58:08.000Z,0
2016-11-20T01:59:08.545Z,0
2016-11-20T02:00:08.099Z,0
2016-11-20T02:01:07.999Z,0
2016-11-20T02:02:08.349Z,0
2016-11-20T02:03:09.059Z,0
2016-11-20T02:04:08.573Z,0
2016-11-20T02:05:08.493Z,0
2016-11-20T02:06:07.939Z,0
2016-11-20T02:07:07.945Z,0
2016-11-20T02:08:08.162Z,0
2016-11-20T02:09:08.120Z,0
2016-11-20T02:10:08.500Z,0
2016-11-20T02:11:08.320Z,0
2016-11-20T02:12:08.049Z,0
2016-11-20T02:13:09.050Z,0
2016-11-20T02:14:09.047Z,0
2016-11-20T02:15:08.189Z,0
2016-11-20T02:16:08.604Z,0
2016-11-20T02:17:07.671Z,0
2016-11-20T02:18:08.524Z,0
2016-11-20T02:19:07.946Z,0
2016-11-20T02:20:07.186Z,0
2016-11-20T02:21:08.869Z,0
2016-11-20T02:22:08.861Z,0
2016-11-20T02:23:07.994Z,0
2016-11-20T02:24:07.020Z,0
2016-11-20T02:25:07.998Z,0
2016-11-20T02:26:08.772Z,0
2016-11-20T02:27:08.079Z,0
2016-11-20T02:28:07.471Z,0
2016-11-20T02:29:07.681Z,0
2016-11-20T02:30:07.171Z,0
2016-11-20T02:31:07.846Z,0
2016-11-20T02:32:08.203Z,0
2016-11-20T02:33:07.821Z,0
2016-11-20T02:34:08.131Z,0
2016-11-20T02:35:07.901Z,0
2016-11-20T02:36:08.482Z,0
2016-11-20T02:37:07.461Z,0
2016-11-20T02:38:07.451Z,0
2016-11-20T02:39:06.579Z,0
2016-11-20T02:40:07.699Z,0
2016-11-20T02:41:07.611Z,0
2016-11-20T02:42:07.593Z,0
2016-11-20T02:43:07.701Z,0
2016-11-20T02:44:07.291Z,0
2016-11-20T02:45:08.412Z,0
2016-11-20T02:46:07.475Z,0
2016-11-20T02:47:07.223Z,0
2016-11-20T02:48:06.936Z,0
2016-11-20T02:49:06.639Z,0
2016-11-20T02:50:08.131Z,0
2016-11-20T02:51:07.743Z,0
2016-11-20T02:52:06.613Z,0
2016-11-20T02:53:06.981Z,0
2016-11-20T02:54:07.022Z,0
2016-11-20T02:55:07.192Z,0
2016-11-20T02:56:07.221Z,0
2016-11-20T02:57:07.640Z,0
2016-11-20T02:58:06.593Z,0
2016-11-20T02:59:06.846Z,0
2016-11-20T03:00:07.532Z,0
2016-11-20T03:01:07.922Z,0
2016-11-20T03:02:07.148Z,0
2016-11-20T03:03:07.842Z,0
2016-11-20T03:04:07.177Z,0
2016-11-20T03:05:06.535Z,0
2016-11-20T03:06:06.708Z,0
2016-11-20T03:07:06.356Z,0
2016-11-20T03:08:06.644Z,0
2016-11-20T03:09:06.869Z,0
2016-11-20T03:10:06.882Z,0
2016-11-20T03:11:07.651Z,0
2016-11-20T03:12:06.485Z,0
2016-11-20T03:13:07.252Z,0
2016-11-20T03:14:06.742Z,0
2016-11-20T03:15:07.130Z,0
2016-11-20T03:16:06.069Z,0
2016-11-20T03:17:06.715Z,0
2016-11-20T03:18:07.072Z,0
2016-11-20T03:19:06.679Z,0
2016-11-20T03:20:07.007Z,0
2016-11-20T03:21:06.732Z,0
2016-11-20T03:22:06.319Z,0
2016-11-20T03:23:05.842Z,0
2016-11-20T03:24:06.536Z,0
2016-11-20T03:25:06.497Z,0
2016-11-20T03:26:06.738Z,0
2016-11-20T03:27:06.664Z,0
2016-11-20T03:28:06.843Z,0
2016-11-20T03:29:06.818Z,0
2016-11-20T03:30:07.106Z,0
2016-11-20T03:31:06.635Z,0
2016-11-20T03:32:06.713Z,0
2016-11-20T03:33:05.839Z,0
2016-11-20T03:34:06.730Z,0
2016-11-20T03:35:06.347Z,0
2016-11-20T03:36:07.073Z,0
2016-11-20T03:37:06.635Z,0
2016-11-20T03:38:05.941Z,0
2016-11-20T03:39:05.940Z,0
2016-11-20T03:40:06.218Z,0
2016-11-20T03:41:05.893Z,0
2016-11-20T03:42:05.830Z,0
2016-11-20T03:43:05.760Z,0
2016-11-20T03:44:05.309Z,0
2016-11-20T03:45:05.282Z,0
2016-11-20T03:46:06.686Z,0
2016-11-20T03:47:06.366Z,0
2016-11-20T03:48:05.566Z,0
2016-11-20T03:49:05.448Z,0
2016-11-20T03:50:06.686Z,0
2016-11-20T03:51:06.686Z,0
2016-11-20T03:52:05.622Z,0
2016-11-20T03:53:06.371Z,0
2016-11-20T03:54:05.952Z,0
2016-11-20T03:55:04.632Z,0
2016-11-20T03:56:05.902Z,0
2016-11-20T03:57:05.906Z,0
2016-11-20T03:58:06.513Z,0
2016-11-20T03:59:05.791Z,0
2016-11-20T04:00:05.857Z,0
2016-11-20T04:01:05.919Z,0
2016-11-20T04:02:04.621Z,0
2016-11-20T04:03:05.681Z,0
2016-11-20T04:04:05.551Z,0
2016-11-20T04:05:05.698Z,0
2016-11-20T04:06:05.253Z,0
2016-11-20T04:07:05.236Z,0
2016-11-20T04:08:05.281Z,0
2016-11-20T04:09:05.210Z,0
2016-11-20T04:10:05.175Z,0
2016-11-20T04:11:05.837Z,0
2016-11-20T04:12:05.604Z,0
2016-11-20T04:13:05.127Z,0
2016-11-20T04:14:05.510Z,0
2016-11-20T04:15:06.125Z,0
2016-11-20T04:16:05.264Z,0
2016-11-20T04:17:04.996Z,0
2016-11-20T04:18:05.539Z,0
2016-11-20T04:19:05.370Z,0
2016-11-20T04:20:05.446Z,0
2016-11-20T04:21:05.139Z,0
2016-11-20T04:22:06.000Z,0
2016-11-20T04:23:05.530Z,0
2016-11-20T04:24:05.520Z,0
2016-11-20T04:25:05.729Z,0
2016-11-20T04:26:04.813Z,0
2016-11-20T04:27:05.266Z,0
2016-11-20T04:28:05.163Z,0
2016-11-20T04:29:05.809Z,0
2016-11-20T04:30:05.142Z,0
2016-11-20T04:31:04.939Z,0
2016-11-20T04:32:05.279Z,0
2016-11-20T04:33:05.529Z,0
2016-11-20T04:34:04.595Z,0
2016-11-20T04:35:05.215Z,0
2016-11-20T04:36:04.887Z,0
2016-11-20T04:37:05.018Z,0
2016-11-20T04:38:05.153Z,0
2016-11-20T04:39:05.130Z,0
2016-11-20T04:40:04.662Z,0
2016-11-20T04:41:05.080Z,0
2016-11-20T04:42:05.332Z,0
2016-11-20T04:43:05.298Z,0
2016-11-20T04:44:05.421Z,0
2016-11-20T04:45:05.004Z,0
2016-11-20T04:46:04.630Z,0
2016-11-20T04:47:04.938Z,0
2016-11-20T04:48:05.298Z,0
2016-11-20T04:49:04.646Z,0
2016-11-20T04:50:05.309Z,0
2016-11-20T04:51:05.269Z,0
2016-11-20T04:52:04.557Z,0
2016-11-20T04:53:05.172Z,0
2016-11-20T04:54:04.599Z,0
2016-11-20T04:55:05.149Z,0
2016-11-20T04:56:04.303Z,0
2016-11-20T04:57:05.102Z,0
2016-11-20T04:58:04.659Z,0
2016-11-20T04:59:05.057Z,0
2016-11-20T05:00:04.632Z,0
2016-11-20T05:01:04.278Z,0
2016-11-20T05:02:04.843Z,0
2016-11-20T05:03:04.998Z,0
2016-11-20T05:04:04.287Z,0
2016-11-20T05:05:02.941Z,0
2016-11-20T05:06:04.767Z,0
2016-11-20T05:07:04.192Z,0
2016-11-20T05:08:03.751Z,0
2016-11-20T05:09:04.176Z,0
2016-11-20T05:10:04.766Z,0
2016-11-20T05:11:03.696Z,0
2016-11-20T05:12:04.326Z,0
2016-11-20T05:13:04.591Z,0
2016-11-20T05:14:04.287Z,0
2016-11-20T05:15:03.339Z,0
2016-11-20T05:16:03.959Z,0
2016-11-20T05:17:04.187Z,0
2016-11-20T05:18:04.575Z,0
2016-11-20T05:19:03.858Z,0
2016-11-20T05:20:03.726Z,0
2016-11-20T05:21:03.666Z,0
2016-11-20T05:22:03.839Z,0
2016-11-20T05:23:03.324Z,0
2016-11-20T05:24:04.459Z,0
2016-11-20T05:25:03.116Z,0
2016-11-20T05:26:03.988Z,0
2016-11-20T05:27:03.075Z,0
2016-11-20T05:28:03.204Z,0
2016-11-20T05:29:03.030Z,0
2016-11-20T05:30:04.169Z,0
2016-11-20T05:31:03.861Z,0
2016-11-20T05:32:03.425Z,0
2016-11-20T05:33:03.826Z,0
2016-11-20T05:34:02.917Z,0
2016-11-20T05:35:03.525Z,0
2016-11-20T05:36:03.626Z,0
2016-11-20T05:37:03.584Z,0
2016-11-20T05:38:03.439Z,0
2016-11-20T05:39:03.443Z,0
2016-11-20T05:40:03.905Z,0
2016-11-20T05:41:03.387Z,0
2016-11-20T05:42:03.648Z,0
2016-11-20T05:43:03.608Z,0
2016-11-20T05:44:02.024Z,0
2016-11-20T05:45:03.001Z,0
2016-11-20T05:46:03.546Z,0
2016-11-20T05:47:03.525Z,0
2016-11-20T05:48:02.744Z,0
2016-11-20T05:49:03.115Z,0
2016-11-20T05:50:03.162Z,0
2016-11-20T05:51:03.031Z,0
2016-11-20T05:52:02.970Z,0
2016-11-20T05:53:03.075Z,0
2016-11-20T05:54:03.344Z,0
2016-11-20T05:55:03.155Z,0
2016-11-20T05:56:03.015Z,0
2016-11-20T05:57:02.884Z,0
2016-11-20T05:58:02.344Z,0
2016-11-20T05:59:03.678Z,0
2016-11-20T06:00:02.894Z,0
2016-11-20T06:01:02.974Z,0
2016-11-20T06:02:03.395Z,0
2016-11-20T06:03:02.452Z,0
2016-11-20T06:04:02.844Z,0
2016-11-20T06:05:02.647Z,0
2016-11-20T06:06:03.094Z,0
2016-11-20T06:07:03.324Z,0
2016-11-20T06:08:03.384Z,0
2016-11-20T06:09:02.515Z,0
2016-11-20T06:10:03.209Z,0
2016-11-20T06:11:02.622Z,0
2016-11-20T06:12:02.254Z,0
2016-11-20T06:13:03.135Z,0
2016-11-20T06:14:02.105Z,0
2016-11-20T06:15:02.474Z,0
2016-11-20T06:16:02.015Z,0
2016-11-20T06:17:01.876Z,0
2016-11-20T06:18:01.912Z,0
2016-11-20T06:19:02.303Z,0
2016-11-20T06:20:02.466Z,0
2016-11-20T06:21:02.687Z,0
2016-11-20T06:22:03.086Z,0
2016-11-20T06:23:02.896Z,0
2016-11-20T06:24:02.619Z,0
2016-11-20T06:25:01.596Z,0
2016-11-20T06:26:02.949Z,0
2016-11-20T06:27:02.526Z,0
2016-11-20T06:28:02.088Z,0
2016-11-20T06:29:01.751Z,0
2016-11-20T06:30:02.236Z,0
2016-11-20T06:31:02.097Z,0
2016-11-20T06:32:00.879Z,0
2016-11-20T06:33:01.666Z,4
2016-11-20T06:34:02.527Z,4
2016-11-20T06:35:02.278Z,4
2016-11-20T06:36:00.553Z,4
2016-11-20T06:37:02.720Z,8
2016-11-20T06:38:02.276Z,4
2016-11-20T06:39:02.687Z,8
2016-11-20T06:40:01.937Z,8
2016-11-20T06:41:02.337Z,8
2016-11-20T06:42:02.206Z,12
2016-11-20T06:43:01.928Z,12
2016-11-20T06:44:01.507Z,12
2016-11-20T06:45:01.898Z,12
2016-11-20T06:46:01.107Z,16
2016-11-20T06:47:01.373Z,16
2016-11-20T06:48:01.419Z,20
2016-11-20T06:49:02.459Z,20
2016-11-20T06:50:01.645Z,24
2016-11-20T06:51:01.743Z,28
2016-11-20T06:52:01.959Z,28
2016-11-20T06:53:01.957Z,32
2016-11-20T06:54:01.908Z,40
2016-11-20T06:55:01.736Z,44
2016-11-20T06:56:01.627Z,48
2016-11-20T06:57:02.247Z,52
2016-11-20T06:58:02.246Z,56
2016-11-20T06:59:02.193Z,56
2016-11-20T07:00:00.849Z,48
2016-11-20T07:01:00.981Z,48
2016-11-20T07:02:00.753Z,56
2016-11-20T07:03:01.692Z,60
2016-11-20T07:04:01.019Z,60
2016-11-20T07:05:02.057Z,64
2016-11-20T07:06:01.303Z,68
2016-11-20T07:07:01.587Z,64
2016-11-20T07:08:01.994Z,68
2016-11-20T07:09:01.164Z,72
2016-11-20T07:10:01.270Z,76
2016-11-20T07:11:01.173Z,80
2016-11-20T07:12:01.052Z,80
2016-11-20T07:13:01.452Z,84
2016-11-20T07:14:01.013Z,92
2016-11-20T07:15:01.826Z,96
2016-11-20T07:16:01.398Z,76
2016-11-20T07:17:00.814Z,68
2016-11-20T07:18:00.711Z,64
2016-11-20T07:19:01.302Z,64
2016-11-20T07:20:01.299Z,56
2016-11-20T07:21:01.264Z,60
2016-11-20T07:22:00.589Z,56
2016-11-20T07:23:00.587Z,64
2016-11-20T07:24:00.543Z,68
2016-11-20T07:25:00.844Z,76
2016-11-20T07:26:01.645Z,88
2016-11-20T07:27:01.543Z,100
2016-11-20T07:28:00.894Z,120
2016-11-20T07:29:00.719Z,144
2016-11-20T07:30:01.447Z,164
2016-11-20T07:31:01.023Z,176
2016-11-20T07:31:59.983Z,184
2016-11-20T07:33:01.268Z,204
2016-11-20T07:34:00.610Z,212
2016-11-20T07:35:01.340Z,200
2016-11-20T07:36:00.520Z,176
2016-11-20T07:37:01.189Z,168
2016-11-20T07:38:00.630Z,172
2016-11-20T07:39:01.242Z,192
2016-11-20T07:39:59.779Z,212
2016-11-20T07:41:00.406Z,236
2016-11-20T07:42:00.129Z,256
2016-11-20T07:43:00.420Z,260
2016-11-20T07:44:00.774Z,252
2016-11-20T07:45:01.119Z,228
2016-11-20T07:46:01.135Z,204
2016-11-20T07:47:00.679Z,200
2016-11-20T07:47:58.938Z,204
2016-11-20T07:49:00.399Z,192
2016-11-20T07:50:00.203Z,188
2016-11-20T07:51:00.168Z,188
2016-11-20T07:52:00.558Z,184
2016-11-20T07:53:00.133Z,192
2016-11-20T07:53:59.478Z,204
2016-11-20T07:55:00.216Z,216
2016-11-20T07:56:00.888Z,220
2016-11-20T07:57:00.833Z,216
2016-11-20T07:58:00.528Z,208
2016-11-20T07:59:00.797Z,192
2016-11-20T08:00:00.443Z,188
2016-11-20T08:00:59.798Z,188
2016-11-20T08:01:59.657Z,180
2016-11-20T08:03:00.140Z,168
2016-11-20T08:04:00.113Z,148
2016-11-20T08:05:00.112Z,152
2016-11-20T08:06:00.172Z,164
2016-11-20T08:07:00.596Z,192
2016-11-20T08:07:59.538Z,216
2016-11-20T08:08:59.498Z,228
2016-11-20T08:10:00.568Z,224
2016-11-20T08:11:00.113Z,216
2016-11-20T08:11:59.819Z,224
2016-11-20T08:13:00.438Z,236
2016-11-20T08:14:00.007Z,244
2016-11-20T08:15:00.458Z,248
2016-11-20T08:15:59.016Z,256
2016-11-20T08:17:00.387Z,280
2016-11-20T08:18:00.027Z,288
2016-11-20T08:18:59.497Z,308
2016-11-20T08:20:00.305Z,304
2016-11-20T08:21:00.261Z,280
2016-11-20T08:21:59.817Z,228
2016-11-20T08:22:58.922Z,220
2016-11-20T08:23:59.405Z,228
2016-11-20T08:24:59.435Z,224
2016-11-20T08:26:00.176Z,252
2016-11-20T08:27:00.137Z,288
2016-11-20T08:27:58.643Z,300
2016-11-20T08:28:59.995Z,300
2016-11-20T08:29:59.443Z,252
2016-11-20T08:30:59.028Z,212
2016-11-20T08:31:58.825Z,188
2016-11-20T08:32:58.265Z,184
2016-11-20T08:33:58.720Z,204
2016-11-20T08:34:58.475Z,212
2016-11-20T08:35:58.875Z,240
2016-11-20T08:36:58.112Z,236
2016-11-20T08:37:58.721Z,224
2016-11-20T08:38:59.828Z,240
2016-11-20T08:39:59.071Z,252
2016-11-20T08:40:59.816Z,240
2016-11-20T08:41:59.667Z,208
2016-11-20T08:42:59.605Z,204
2016-11-20T08:43:59.087Z,212
2016-11-20T08:44:58.274Z,224
2016-11-20T08:45:58.606Z,236
2016-11-20T08:46:58.114Z,232
2016-11-20T08:47:58.799Z,228
2016-11-20T08:48:58.651Z,192
2016-11-20T08:49:58.305Z,192
2016-11-20T08:50:59.004Z,196
2016-11-20T08:51:57.678Z,208
2016-11-20T08:52:58.223Z,208
2016-11-20T08:53:58.115Z,228
2016-11-20T08:54:58.167Z,272
2016-11-20T08:55:58.790Z,300
2016-11-20T08:56:58.304Z,256
2016-11-20T08:57:59.004Z,200
2016-11-20T08:58:58.415Z,172
2016-11-20T08:59:58.931Z,184
2016-11-20T09:00:58.505Z,232
2016-11-20T09:01:58.764Z,236
2016-11-20T09:02:58.663Z,272
2016-11-20T09:03:58.705Z,224
2016-11-20T09:04:59.095Z,224
2016-11-20T09:05:58.675Z,240
2016-11-20T09:06:58.395Z,280
2016-11-20T09:07:58.547Z,304
2016-11-20T09:08:58.363Z,340
2016-11-20T09:09:59.004Z,316
2016-11-20T09:10:58.475Z,308
2016-11-20T09:11:59.044Z,320
2016-11-20T09:12:58.133Z,324
2016-11-20T09:13:57.526Z,300
2016-11-20T09:14:58.218Z,260
2016-11-20T09:15:58.321Z,232
2016-11-20T09:16:58.975Z,224
2016-11-20T09:17:58.394Z,220
2016-11-20T09:18:58.194Z,228
2016-11-20T09:19:58.225Z,260
2016-11-20T09:20:58.117Z,288
2016-11-20T09:21:58.826Z,296
2016-11-20T09:22:58.153Z,292
2016-11-20T09:23:58.246Z,312
2016-11-20T09:24:58.356Z,340
2016-11-20T09:25:57.564Z,400
2016-11-20T09:26:58.335Z,460
2016-11-20T09:27:58.345Z,520
2016-11-20T09:28:58.255Z,552
2016-11-20T09:29:57.171Z,648
2016-11-20T09:30:58.478Z,788
2016-11-20T09:31:57.775Z,940
2016-11-20T09:32:58.185Z,1088
2016-11-20T09:33:57.370Z,1188
2016-11-20T09:34:57.405Z,1376
2016-11-20T09:35:57.409Z,2124
2016-11-20T09:36:58.095Z,3232
2016-11-20T09:37:57.797Z,6496
2016-11-20T09:38:57.614Z,7064
2016-11-20T09:39:58.065Z,10792
2016-11-20T09:40:57.336Z,14748
2016-11-20T09:41:57.625Z,28064
2016-11-20T09:42:58.342Z,7616
2016-11-20T09:43:57.074Z,10932
2016-11-20T09:44:58.174Z,24576
2016-11-20T09:45:58.195Z,24864
2016-11-20T09:46:57.722Z,5020
2016-11-20T09:47:58.263Z,3532
2016-11-20T09:48:58.168Z,3328
2016-11-20T09:49:57.935Z,3292
2016-11-20T09:50:57.217Z,4584
2016-11-20T09:51:57.384Z,5088
2016-11-20T09:52:57.615Z,10000
2016-11-20T09:53:57.054Z,7168
2016-11-20T09:54:56.817Z,3652
2016-11-20T09:55:57.904Z,4224
2016-11-20T09:56:57.079Z,4240
2016-11-20T09:57:58.034Z,3860
2016-11-20T09:58:57.886Z,5876
2016-11-20T09:59:57.274Z,4248
2016-11-20T10:00:57.356Z,5440
2016-11-20T10:01:57.534Z,3572
2016-11-20T10:02:58.065Z,5704
2016-11-20T10:03:57.770Z,4832
2016-11-20T10:04:57.824Z,4984
2016-11-20T10:05:56.560Z,7136
2016-11-20T10:06:56.562Z,10120
2016-11-20T10:07:57.839Z,10116
2016-11-20T10:08:57.414Z,7852
2016-11-20T10:09:57.168Z,4780
2016-11-20T10:10:57.378Z,3520
2016-11-20T10:11:57.325Z,3060
2016-11-20T10:12:56.658Z,3104
2016-11-20T10:13:57.166Z,2860
2016-11-20T10:14:57.733Z,2144
2016-11-20T10:15:56.825Z,1768
2016-11-20T10:16:56.585Z,1748
2016-11-20T10:17:56.820Z,1768
2016-11-20T10:18:56.283Z,1988
2016-11-20T10:19:57.544Z,13856
2016-11-20T10:20:57.533Z,15296
2016-11-20T10:21:55.974Z,16352
2016-11-20T10:22:56.446Z,5452
2016-11-20T10:23:56.264Z,4376
2016-11-20T10:24:56.160Z,8520
2016-11-20T10:25:57.423Z,9320
2016-11-20T10:26:56.352Z,8540
2016-11-20T10:27:55.452Z,8140
2016-11-20T10:28:57.408Z,12848
2016-11-20T10:29:56.709Z,15104
2016-11-20T10:30:57.197Z,15552
2016-11-20T10:31:56.136Z,13316
2016-11-20T10:32:57.365Z,15744
2016-11-20T10:33:57.141Z,8188
2016-11-20T10:34:56.730Z,5324
2016-11-20T10:35:56.513Z,4884
2016-11-20T10:36:56.375Z,6108
2016-11-20T10:37:56.077Z,3068
2016-11-20T10:38:55.922Z,3096
2016-11-20T10:39:56.116Z,3628
2016-11-20T10:40:56.731Z,3992
2016-11-20T10:41:56.466Z,4416
2016-11-20T10:42:56.976Z,5516
2016-11-20T10:43:57.074Z,10652
2016-11-20T10:44:56.219Z,16672
2016-11-20T10:45:55.941Z,15648
2016-11-20T10:46:55.875Z,5164
2016-11-20T10:47:55.988Z,4288
2016-11-20T10:48:56.474Z,3444
2016-11-20T10:49:56.442Z,2292
2016-11-20T10:50:56.605Z,2288
2016-11-20T10:51:56.309Z,2548
2016-11-20T10:52:56.277Z,4440
2016-11-20T10:53:56.237Z,4452
2016-11-20T10:54:56.383Z,5348
2016-11-20T10:55:56.213Z,5920
2016-11-20T10:56:56.191Z,7296
2016-11-20T10:57:56.414Z,4368
2016-11-20T10:58:56.259Z,4164
2016-11-20T10:59:55.365Z,4152
2016-11-20T11:00:55.295Z,4088
2016-11-20T11:01:56.776Z,4400
2016-11-20T11:02:56.401Z,4960
2016-11-20T11:03:56.312Z,5180
2016-11-20T11:04:55.968Z,4392
2016-11-20T11:05:55.775Z,4216
2016-11-20T11:06:56.156Z,5176
2016-11-20T11:07:55.496Z,5196
2016-11-20T11:08:55.267Z,5388
2016-11-20T11:09:55.754Z,4252
2016-11-20T11:10:55.394Z,4640
2016-11-20T11:11:56.405Z,3808
2016-11-20T11:12:56.497Z,4176
2016-11-20T11:13:56.462Z,4672
2016-11-20T11:14:56.573Z,5624
2016-11-20T11:15:55.818Z,7936
2016-11-20T11:16:55.394Z,12096
2016-11-20T11:17:55.327Z,14848
2016-11-20T11:18:56.110Z,14528
2016-11-20T11:19:56.407Z,15328
2016-11-20T11:20:55.670Z,14560
2016-11-20T11:21:56.004Z,13404
2016-11-20T11:22:55.935Z,13364
2016-11-20T11:23:55.170Z,11572
2016-11-20T11:24:55.995Z,12212
2016-11-20T11:25:55.887Z,11856
2016-11-20T11:26:55.195Z,5048
2016-11-20T11:27:55.849Z,4256
2016-11-20T11:28:56.313Z,4664
2016-11-20T11:29:56.058Z,4948
2016-11-20T11:30:54.946Z,5652
2016-11-20T11:31:55.472Z,5100
2016-11-20T11:32:55.534Z,4708
2016-11-20T11:33:54.570Z,5008
2016-11-20T11:34:54.826Z,6492
2016-11-20T11:35:55.448Z,6752
2016-11-20T11:36:55.675Z,10296
2016-11-20T11:37:55.040Z,5864
2016-11-20T11:38:55.516Z,5628
2016-11-20T11:39:55.395Z,16768
2016-11-20T11:40:55.476Z,6120
2016-11-20T11:41:55.044Z,6204
2016-11-20T11:42:55.011Z,5272
2016-11-20T11:43:55.718Z,4688
2016-11-20T11:44:55.547Z,3792
2016-11-20T11:45:55.806Z,3004
2016-11-20T11:46:55.778Z,2584
2016-11-20T11:47:55.228Z,2172
2016-11-20T11:48:55.229Z,2172
2016-11-20T11:49:55.046Z,2280
2016-11-20T11:50:55.282Z,2028
2016-11-20T11:51:55.826Z,1556
2016-11-20T11:52:55.892Z,1604
2016-11-20T11:53:54.898Z,1644
2016-11-20T11:54:54.947Z,1468
2016-11-20T11:55:54.284Z,1208
2016-11-20T11:56:55.060Z,1268
2016-11-20T11:57:54.558Z,1152
2016-11-20T11:58:53.989Z,1092
2016-11-20T11:59:55.057Z,928
2016-11-20T12:00:54.581Z,956
2016-11-20T12:01:55.269Z,1140
2016-11-20T12:02:55.478Z,1160
2016-11-20T12:03:55.049Z,1056
2016-11-20T12:04:54.431Z,1176
2016-11-20T12:05:55.544Z,1176
2016-11-20T12:06:54.528Z,1008
2016-11-20T12:07:54.841Z,1136
2016-11-20T12:08:54.750Z,1072
2016-11-20T12:09:55.464Z,1076
2016-11-20T12:10:55.353Z,984
2016-11-20T12:11:54.395Z,1020
2016-11-20T12:12:55.047Z,928
2016-11-20T12:13:54.870Z,1080
2016-11-20T12:14:54.731Z,912
2016-11-20T12:15:55.355Z,904
2016-11-20T12:16:54.901Z,896
2016-11-20T12:17:53.938Z,964
2016-11-20T12:18:53.589Z,848
2016-11-20T12:19:55.212Z,936
2016-11-20T12:20:54.854Z,964
2016-11-20T12:21:54.484Z,1000
2016-11-20T12:22:54.613Z,1112
2016-11-20T12:23:55.311Z,1148
2016-11-20T12:24:53.983Z,1376
2016-11-20T12:25:53.689Z,976
2016-11-20T12:26:54.120Z,976
2016-11-20T12:27:53.770Z,860
2016-11-20T12:28:55.018Z,820
2016-11-20T12:29:54.970Z,1116
2016-11-20T12:30:55.105Z,760
2016-11-20T12:31:54.390Z,812
2016-11-20T12:32:53.990Z,868
2016-11-20T12:33:54.352Z,788
2016-11-20T12:34:53.538Z,864
2016-11-20T12:35:54.688Z,1068
2016-11-20T12:36:54.832Z,1180
2016-11-20T12:37:54.971Z,1008
2016-11-20T12:38:53.651Z,1312
2016-11-20T12:39:53.261Z,1840
2016-11-20T12:40:54.491Z,2136
2016-11-20T12:41:54.244Z,2532
2016-11-20T12:42:54.742Z,1604
2016-11-20T12:43:54.004Z,1632
2016-11-20T12:44:54.378Z,1996
2016-11-20T12:45:54.172Z,3196
2016-11-20T12:46:53.957Z,3312
2016-11-20T12:47:53.679Z,3176
2016-11-20T12:48:53.692Z,4268
2016-11-20T12:49:53.262Z,2872
2016-11-20T12:50:53.182Z,3256
2016-11-20T12:51:52.982Z,3400
2016-11-20T12:52:53.113Z,3060
2016-11-20T12:53:54.665Z,16544
2016-11-20T12:54:53.960Z,3112
2016-11-20T12:55:53.753Z,3676
2016-11-20T12:56:54.326Z,3312
2016-11-20T12:57:54.672Z,3484
2016-11-20T12:58:54.041Z,3340
2016-11-20T12:59:54.142Z,3080
2016-11-20T13:00:53.401Z,2480
2016-11-20T13:01:53.678Z,2436
2016-11-20T13:02:53.661Z,4528
2016-11-20T13:03:53.570Z,2888
2016-11-20T13:04:54.071Z,2904
2016-11-20T13:05:53.899Z,3536
2016-11-20T13:06:53.190Z,2524
2016-11-20T13:07:54.003Z,2324
2016-11-20T13:08:53.569Z,2256
2016-11-20T13:09:53.162Z,2080
2016-11-20T13:10:54.200Z,2292
2016-11-20T13:11:53.569Z,2556
2016-11-20T13:12:53.265Z,2564
2016-11-20T13:13:53.620Z,2208
2016-11-20T13:14:53.237Z,2328
2016-11-20T13:15:54.220Z,1784
2016-11-20T13:16:52.799Z,2236
2016-11-20T13:17:53.419Z,2320
2016-11-20T13:18:53.227Z,3900
2016-11-20T13:19:53.378Z,3288
2016-11-20T13:20:53.483Z,2584
2016-11-20T13:21:54.169Z,2216
2016-11-20T13:22:53.279Z,1976
2016-11-20T13:23:54.088Z,2408
2016-11-20T13:24:52.158Z,1816
2016-11-20T13:25:53.196Z,2132
2016-11-20T13:26:52.557Z,2608
2016-11-20T13:27:54.018Z,2068
2016-11-20T13:28:52.727Z,1704
2016-11-20T13:29:53.965Z,1560
2016-11-20T13:30:53.586Z,1752
2016-11-20T13:31:53.546Z,2108
2016-11-20T13:32:52.885Z,1968
2016-11-20T13:33:53.819Z,1504
2016-11-20T13:34:52.839Z,1348
2016-11-20T13:35:53.867Z,1600
2016-11-20T13:36:53.494Z,1484
2016-11-20T13:37:52.686Z,1412
2016-11-20T13:38:53.159Z,1396
2016-11-20T13:39:53.390Z,1424
2016-11-20T13:40:53.636Z,1280
2016-11-20T13:41:52.476Z,1272
2016-11-20T13:42:53.134Z,1172
2016-11-20T13:43:53.360Z,1108
2016-11-20T13:44:53.727Z,836
2016-11-20T13:45:52.140Z,840
2016-11-20T13:46:52.585Z,1164
2016-11-20T13:47:52.869Z,1184
2016-11-20T13:48:53.005Z,1032
2016-11-20T13:49:53.488Z,984
2016-11-20T13:50:52.937Z,1044
2016-11-20T13:51:53.416Z,1104
2016-11-20T13:52:52.635Z,1072
2016-11-20T13:53:53.173Z,1168
2016-11-20T13:54:52.387Z,1260
2016-11-20T13:55:52.785Z,1060
2016-11-20T13:56:53.505Z,1156
2016-11-20T13:57:53.096Z,1060
2016-11-20T13:58:53.458Z,884
2016-11-20T13:59:53.345Z,760
2016-11-20T14:00:52.465Z,800
2016-11-20T14:01:53.010Z,752
2016-11-20T14:02:52.742Z,748
2016-11-20T14:03:52.555Z,844
2016-11-20T14:04:52.533Z,920